Terminal Aerodrome Forecast
Issued by NWS Sioux Falls, SD

Home | Current Version | Previous Version | Text Only | Print | Product List | Glossary Off
Versions: 1 2 3 4 5 6 7 8 9 10 11 12 13 14 15 16 17

000
FTUS43 KFSD 121100
TAFHON
TAF
KHON 121136Z 1212/1312 05006KT 6SM SHRA BKN009
      TEMPO 1212/1213 VRB15G25KT 1 1/2SM +TSRA SCT009 OVC025CB
     FM121300 05006KT 6SM SHRA BKN009
      TEMPO 1213/1214 3SM TSRA SCT009 BKN025CB
     FM121600 07005KT P6SM SCT050 BKN120
      TEMPO 1219/1222 -SHRA BKN050
     FM130000 VRB04KT P6SM SCT080
     FM130600 24006KT P6SM SCT120
     FM131000 36010KT P6SM BKN080=

USA.gov is the U.S. government's official web portal to all federal, state and local government web resources and services.